Time;durP1;ratioP1;P1;durP2;ratioP2;P2;SDS_P1;SDS_P2;PMS_P1;PMS_P2;Temp;Humidity;BMP_temperature;BMP_pressure;BME280_temperature;BME280_humidity;BME280_pressure;Samples;Min_cycle;Max_cycle;Signal;HPM_P1;HPM_P2
2023/06/21 00:01:38;;;;;;;16.77;14.65;;;19.10;99.90;;;;;;5054054;28;20182;-67
2023/06/21 00:04:07;;;;;;;18.10;14.50;;;19.10;99.90;;;;;;5053217;28;20045;-67
2023/06/21 00:06:34;;;;;;;16.92;13.18;;;19.00;99.90;;;;;;5053226;28;20041;-67
2023/06/21 00:09:03;;;;;;;15.18;13.20;;;19.00;99.90;;;;;;5052907;28;20478;-67
2023/06/21 00:11:29;;;;;;;15.70;12.90;;;19.00;99.90;;;;;;5053230;28;20056;-67
2023/06/21 00:13:55;;;;;;;14.65;12.60;;;19.00;99.90;;;;;;5053149;28;20048;-67
2023/06/21 00:16:22;;;;;;;14.95;12.02;;;19.00;99.90;;;;;;5053099;28;20048;-68
2023/06/21 00:18:48;;;;;;;14.70;11.63;;;19.00;99.90;;;;;;5053530;28;20048;-68
2023/06/21 00:21:14;;;;;;;15.07;12.00;;;18.90;99.90;;;;;;5035419;28;20464;-67
2023/06/21 00:23:42;;;;;;;14.80;12.27;;;18.90;99.90;;;;;;5052925;28;20044;-68
2023/06/21 00:26:08;;;;;;;17.45;11.43;;;18.90;99.90;;;;;;5051944;28;20552;-68
2023/06/21 00:28:34;;;;;;;14.30;11.80;;;18.90;99.90;;;;;;5035452;28;20128;-68
2023/06/21 00:31:00;;;;;;;14.90;11.75;;;18.90;99.90;;;;;;5052296;28;20045;-67
2023/06/21 00:33:26;;;;;;;12.93;10.82;;;18.90;99.90;;;;;;5052843;28;20045;-68
2023/06/21 00:35:52;;;;;;;13.57;11.02;;;18.80;99.90;;;;;;5052955;28;20051;-68
2023/06/21 00:38:18;;;;;;;12.98;11.32;;;18.80;99.90;;;;;;5053459;28;20144;-68
2023/06/21 00:40:43;;;;;;;13.95;10.85;;;18.80;99.90;;;;;;5054552;28;20056;-67
2023/06/21 00:43:09;;;;;;;14.82;11.27;;;18.80;99.90;;;;;;5056511;28;20049;-68
2023/06/21 00:45:45;;;;;;;13.85;10.77;;;18.80;99.90;;;;;;5056269;28;20041;-67
2023/06/21 00:48:11;;;;;;;15.60;10.80;;;18.80;99.90;;;;;;5056635;28;20210;-68
2023/06/21 00:50:40;;;;;;;13.10;10.13;;;18.80;99.90;;;;;;5056467;28;20098;-68
2023/06/21 00:53:06;;;;;;;14.93;10.70;;;18.80;99.90;;;;;;5056334;28;20052;-68
2023/06/21 00:55:32;;;;;;;12.60;10.90;;;18.80;99.90;;;;;;5056643;28;20171;-67
2023/06/21 00:57:58;;;;;;;14.60;11.30;;;18.80;99.90;;;;;;5055355;28;20132;-69
2023/06/21 01:00:25;;;;;;;12.75;10.10;;;18.80;99.90;;;;;;5056226;28;20525;-67
2023/06/21 01:02:54;;;;;;;11.85;10.30;;;18.70;99.90;;;;;;5056166;28;20095;-67
2023/06/21 01:05:22;;;;;;;12.95;11.15;;;18.70;99.90;;;;;;5056967;28;20406;-71
2023/06/21 01:08:21;;;;;;;13.02;10.68;;;18.60;99.90;;;;;;5056116;28;20051;-68
2023/06/21 01:11:07;;;;;;;13.30;11.27;;;18.70;99.90;;;;;;5056062;28;20048;-68
2023/06/21 01:13:48;;;;;;;14.15;11.07;;;18.60;99.90;;;;;;5037847;28;20057;-68
2023/06/21 01:16:15;;;;;;;12.98;10.63;;;18.60;99.90;;;;;;5055887;28;20124;-68
2023/06/21 01:18:45;;;;;;;14.30;10.75;;;18.60;99.90;;;;;;5054722;28;20075;-68
2023/06/21 01:21:23;;;;;;;12.77;10.70;;;18.60;99.90;;;;;;5055966;28;20049;-67
2023/06/21 01:23:52;;;;;;;14.55;11.57;;;18.60;99.90;;;;;;5055805;28;20053;-68
2023/06/21 01:26:18;;;;;;;13.57;11.15;;;18.50;99.90;;;;;;5054821;28;20060;-67
2023/06/21 01:29:05;;;;;;;14.70;11.35;;;18.50;99.90;;;;;;5055642;28;20049;-68
2023/06/21 01:31:31;;;;;;;15.20;12.07;;;18.50;99.90;;;;;;5055552;28;20496;-68
2023/06/21 01:33:59;;;;;;;14.70;11.90;;;18.50;99.90;;;;;;5054666;28;20053;-68
2023/06/21 01:36:25;;;;;;;15.43;11.38;;;18.50;99.90;;;;;;5055644;28;20492;-68
2023/06/21 01:38:55;;;;;;;13.52;11.43;;;18.50;99.90;;;;;;5055832;28;20123;-67
2023/06/21 01:41:21;;;;;;;15.85;11.60;;;18.40;99.90;;;;;;5054576;28;20052;-68
2023/06/21 01:43:47;;;;;;;13.95;11.65;;;18.40;99.90;;;;;;5055453;28;20033;-67
2023/06/21 01:46:14;;;;;;;16.05;12.18;;;18.40;99.90;;;;;;5059788;28;20056;-69
2023/06/21 01:48:42;;;;;;;14.73;11.88;;;18.40;99.90;;;;;;5075439;28;20048;-68
2023/06/21 01:51:10;;;;;;;18.45;13.50;;;18.40;99.90;;;;;;5074938;28;20049;-67
2023/06/21 01:53:36;;;;;;;16.08;13.35;;;18.30;99.90;;;;;;5058402;28;20053;-69
2023/06/21 01:56:07;;;;;;;18.73;13.77;;;18.30;99.90;;;;;;5075214;28;20056;-68
2023/06/21 01:58:33;;;;;;;16.15;12.85;;;18.40;99.90;;;;;;5075468;28;20465;-67
2023/06/21 02:01:01;;;;;;;16.63;12.98;;;18.40;99.90;;;;;;5057777;28;20136;-68
2023/06/21 02:03:29;;;;;;;17.63;12.88;;;18.40;99.90;;;;;;5075253;28;20044;-68
2023/06/21 02:05:59;;;;;;;15.70;13.10;;;18.40;99.90;;;;;;5074740;28;20401;-68
2023/06/21 02:08:25;;;;;;;16.02;13.65;;;18.30;99.90;;;;;;5075516;28;20052;-68
2023/06/21 02:10:51;;;;;;;16.25;13.45;;;18.30;99.90;;;;;;5074929;28;20432;-67
2023/06/21 02:13:17;;;;;;;17.65;12.95;;;18.30;99.90;;;;;;5074862;28;20040;-68
2023/06/21 02:15:43;;;;;;;17.92;14.45;;;18.30;99.90;;;;;;5075595;28;20067;-68
2023/06/21 02:18:12;;;;;;;17.85;14.02;;;18.30;99.90;;;;;;5057367;28;20044;-68
2023/06/21 02:20:38;;;;;;;20.08;15.85;;;18.30;99.90;;;;;;5057375;28;20059;-68
2023/06/21 02:23:05;;;;;;;17.55;13.65;;;18.40;99.90;;;;;;5074659;28;20500;-67
2023/06/21 02:25:35;;;;;;;19.52;14.60;;;18.40;99.90;;;;;;5075154;28;20044;-68
2023/06/21 02:28:01;;;;;;;20.30;15.65;;;18.30;99.90;;;;;;5074862;28;20044;-68
2023/06/21 02:30:29;;;;;;;21.73;15.63;;;18.30;99.90;;;;;;5074487;28;20552;-68
2023/06/21 02:32:54;;;;;;;22.20;16.20;;;18.30;99.90;;;;;;5056906;28;20588;-68
2023/06/21 02:35:20;;;;;;;20.50;17.02;;;18.40;99.90;;;;;;5056717;28;20062;-67
2023/06/21 02:37:47;;;;;;;22.38;17.08;;;18.50;99.90;;;;;;5074923;28;20127;-67
2023/06/21 02:40:13;;;;;;;24.08;18.65;;;18.50;99.90;;;;;;5075129;28;20396;-67
2023/06/21 02:42:40;;;;;;;23.58;18.17;;;18.50;99.90;;;;;;5056573;28;20052;-67
2023/06/21 02:45:07;;;;;;;23.35;17.15;;;18.50;99.90;;;;;;5039951;28;20039;-67
2023/06/21 02:47:33;;;;;;;24.95;17.92;;;18.50;99.90;;;;;;5074509;28;20067;-67
2023/06/21 02:49:59;;;;;;;25.20;18.40;;;18.40;99.90;;;;;;5074157;28;20095;-68
2023/06/21 02:52:25;;;;;;;25.73;18.00;;;18.40;99.90;;;;;;5074148;28;20083;-68
2023/06/21 02:54:52;;;;;;;23.10;17.13;;;18.40;99.90;;;;;;5074045;28;20507;-67
2023/06/21 02:57:19;;;;;;;24.27;17.20;;;18.30;99.90;;;;;;5073969;28;20047;-68
2023/06/21 02:59:44;;;;;;;25.00;18.30;;;18.30;99.90;;;;;;5073999;28;20052;-68
2023/06/21 03:02:10;;;;;;;26.75;18.70;;;18.20;99.90;;;;;;5056052;28;20073;-68
2023/06/21 03:04:36;;;;;;;25.67;17.75;;;18.20;99.90;;;;;;5073582;28;20481;-68
2023/06/21 03:07:01;;;;;;;27.08;18.83;;;18.20;99.90;;;;;;5073890;28;20052;-68
2023/06/21 03:09:30;;;;;;;26.30;18.23;;;18.10;99.90;;;;;;5074006;28;20139;-68
2023/06/21 03:11:55;;;;;;;24.95;17.73;;;18.10;99.90;;;;;;5038748;28;20150;-67
2023/06/21 03:14:21;;;;;;;26.50;18.52;;;18.10;99.90;;;;;;5074214;28;20037;-68
2023/06/21 03:16:47;;;;;;;27.23;18.92;;;18.10;99.90;;;;;;5073680;28;20052;-68
2023/06/21 03:19:12;;;;;;;27.52;18.60;;;18.00;99.90;;;;;;5056019;28;20048;-68
2023/06/21 03:21:38;;;;;;;26.00;18.42;;;18.00;99.90;;;;;;5073688;28;20139;-68
2023/06/21 03:24:04;;;;;;;25.98;17.90;;;18.00;99.90;;;;;;5074435;28;20132;-68
2023/06/21 03:26:30;;;;;;;25.58;18.38;;;18.00;99.90;;;;;;5074202;28;20453;-68
2023/06/21 03:28:57;;;;;;;27.33;19.92;;;18.00;99.90;;;;;;5073846;28;20123;-68
2023/06/21 03:31:23;;;;;;;28.27;20.40;;;17.90;99.90;;;;;;5073265;28;20481;-68
2023/06/21 03:33:49;;;;;;;25.90;18.00;;;18.00;99.90;;;;;;5073460;28;20055;-68
2023/06/21 03:36:15;;;;;;;25.70;18.42;;;18.00;99.90;;;;;;5056081;28;20129;-68
2023/06/21 03:38:40;;;;;;;25.52;17.90;;;17.90;99.90;;;;;;5039271;28;20049;-68
2023/06/21 03:41:06;;;;;;;23.92;17.85;;;17.90;99.90;;;;;;5056180;28;20040;-68
2023/06/21 03:43:32;;;;;;;25.40;18.90;;;17.90;99.90;;;;;;5055465;28;20044;-69
2023/06/21 03:45:58;;;;;;;26.25;19.42;;;17.90;99.90;;;;;;5073332;28;20131;-68
2023/06/21 03:48:24;;;;;;;27.05;18.83;;;17.90;99.90;;;;;;5073717;28;20465;-69
2023/06/21 03:50:50;;;;;;;29.83;19.60;;;17.90;99.90;;;;;;5073321;28;20177;-69
2023/06/21 03:53:16;;;;;;;28.95;20.15;;;17.90;99.90;;;;;;5073415;28;20049;-67
2023/06/21 03:55:43;;;;;;;23.63;17.75;;;18.00;99.90;;;;;;5039021;28;20485;-68
2023/06/21 03:58:09;;;;;;;26.65;17.83;;;18.00;99.90;;;;;;5056148;28;20056;-68
2023/06/21 04:00:35;;;;;;;25.10;18.33;;;17.90;99.90;;;;;;5073872;28;20044;-68
2023/06/21 04:03:01;;;;;;;27.98;19.40;;;17.90;99.90;;;;;;5073984;28;20041;-68
2023/06/21 04:05:26;;;;;;;27.52;19.90;;;17.90;99.90;;;;;;5055353;28;20048;-69
2023/06/21 04:07:52;;;;;;;26.15;19.88;;;17.90;99.90;;;;;;5055603;28;20448;-68
2023/06/21 04:10:18;;;;;;;28.08;19.70;;;17.90;99.90;;;;;;5075918;28;20049;-68
2023/06/21 04:12:43;;;;;;;25.80;18.73;;;17.90;99.90;;;;;;5075477;28;20127;-68
2023/06/21 04:15:11;;;;;;;27.67;19.88;;;18.00;99.90;;;;;;5076618;28;20074;-67
2023/06/21 04:17:37;;;;;;;27.73;18.67;;;17.90;99.90;;;;;;5077111;28;20048;-68
2023/06/21 04:20:11;;;;;;;27.10;18.85;;;18.00;99.90;;;;;;5076823;28;20378;-68
2023/06/21 04:22:38;;;;;;;28.63;19.75;;;18.00;99.90;;;;;;5060123;28;20049;-67
2023/06/21 04:25:04;;;;;;;28.30;19.75;;;18.00;99.90;;;;;;5059651;28;20044;-68
2023/06/21 04:27:30;;;;;;;28.35;20.45;;;18.00;99.90;;;;;;5059300;28;20388;-68
2023/06/21 04:29:56;;;;;;;27.83;19.80;;;18.00;99.90;;;;;;5059210;28;20044;-69
2023/06/21 04:32:21;;;;;;;30.38;19.75;;;18.00;99.90;;;;;;5077191;28;20040;-68
2023/06/21 04:34:48;;;;;;;28.10;19.92;;;18.00;99.90;;;;;;5058871;28;20431;-68
2023/06/21 04:37:14;;;;;;;27.85;19.38;;;18.00;99.90;;;;;;5059320;28;20155;-69
2023/06/21 04:39:39;;;;;;;29.02;19.60;;;18.10;99.90;;;;;;5059075;28;20127;-68
2023/06/21 04:42:05;;;;;;;30.33;20.30;;;18.10;99.90;;;;;;5077214;28;20511;-68
2023/06/21 04:44:31;;;;;;;27.90;19.95;;;18.10;99.90;;;;;;5076452;28;20043;-68
2023/06/21 04:47:00;;;;;;;28.42;20.38;;;18.10;99.90;;;;;;5076632;28;20053;-68
2023/06/21 04:49:26;;;;;;;30.52;21.00;;;18.10;99.90;;;;;;5058809;28;20052;-69
2023/06/21 04:51:53;;;;;;;27.95;20.20;;;18.10;99.90;;;;;;5042189;28;20053;-68
2023/06/21 04:54:22;;;;;;;28.20;19.92;;;18.00;99.90;;;;;;5076400;28;20056;-68
2023/06/21 04:56:49;;;;;;;30.90;21.08;;;18.10;99.90;;;;;;5076343;28;20053;-68
2023/06/21 04:59:16;;;;;;;30.20;19.88;;;18.10;99.90;;;;;;5076857;28;20105;-68
2023/06/21 05:01:42;;;;;;;30.25;20.30;;;18.20;99.90;;;;;;5076210;28;20095;-68
2023/06/21 05:04:07;;;;;;;33.20;21.95;;;18.20;99.90;;;;;;5058081;28;20076;-69
2023/06/21 05:06:33;;;;;;;32.42;21.77;;;18.30;99.90;;;;;;5058760;28;20094;-68
2023/06/21 05:08:59;;;;;;;32.15;21.08;;;18.30;99.90;;;;;;5076623;28;20049;-69
2023/06/21 05:11:24;;;;;;;33.78;22.48;;;18.30;99.90;;;;;;5076639;28;20053;-68
2023/06/21 05:13:50;;;;;;;32.22;23.15;;;18.40;99.90;;;;;;5059191;28;20048;-68
2023/06/21 05:16:16;;;;;;;31.23;22.98;;;18.40;99.90;;;;;;5075909;28;20127;-68
2023/06/21 05:18:42;;;;;;;32.67;22.73;;;18.50;99.90;;;;;;5076470;28;20044;-68
2023/06/21 05:21:08;;;;;;;34.53;21.92;;;18.50;99.90;;;;;;5075927;28;20059;-68
2023/06/21 05:23:34;;;;;;;32.78;23.05;;;18.50;99.90;;;;;;5075847;28;20044;-68
2023/06/21 05:26:00;;;;;;;32.53;22.10;;;18.60;99.90;;;;;;5075016;28;20055;-68
2023/06/21 05:28:25;;;;;;;32.38;22.55;;;18.60;99.90;;;;;;5041525;28;20064;-67
2023/06/21 05:30:51;;;;;;;35.75;23.60;;;18.60;99.90;;;;;;5075686;28;20131;-67
2023/06/21 05:33:20;;;;;;;35.20;23.70;;;18.60;99.90;;;;;;5075676;28;20036;-68
2023/06/21 05:35:45;;;;;;;35.30;22.73;;;18.60;99.90;;;;;;5075654;28;20166;-68
2023/06/21 05:38:11;;;;;;;32.90;22.42;;;18.70;99.90;;;;;;5057548;28;20080;-70
2023/06/21 05:40:37;;;;;;;32.78;22.55;;;18.70;99.90;;;;;;5075541;28;20060;-68
2023/06/21 05:43:03;;;;;;;34.40;22.40;;;18.70;99.90;;;;;;5075443;28;20040;-68
2023/06/21 05:45:29;;;;;;;35.38;22.67;;;18.70;99.90;;;;;;5075516;28;20099;-68
2023/06/21 05:47:56;;;;;;;32.88;22.15;;;18.70;99.90;;;;;;5076072;28;20115;-67
2023/06/21 05:50:22;;;;;;;32.55;22.63;;;18.80;99.90;;;;;;5075358;28;20083;-67
2023/06/21 05:52:48;;;;;;;33.58;22.85;;;18.80;99.90;;;;;;5057887;28;20088;-67
2023/06/21 05:55:14;;;;;;;32.53;23.02;;;18.80;99.90;;;;;;5075232;28;20131;-69
2023/06/21 05:57:39;;;;;;;31.60;21.73;;;18.90;99.90;;;;;;5075158;28;20048;-68
2023/06/21 06:00:09;;;;;;;29.98;21.75;;;18.90;99.90;;;;;;5075183;28;20139;-68
2023/06/21 06:02:35;;;;;;;32.60;22.38;;;18.90;99.90;;;;;;5057335;28;20055;-67
2023/06/21 06:05:00;;;;;;;33.75;23.00;;;19.00;99.90;;;;;;5075540;28;20487;-68
2023/06/21 06:07:26;;;;;;;30.40;21.48;;;19.00;99.90;;;;;;5075024;28;20083;-67
2023/06/21 06:09:52;;;;;;;31.80;22.52;;;19.10;99.90;;;;;;5075441;28;20127;-64
2023/06/21 06:12:21;;;;;;;32.63;22.05;;;19.10;99.90;;;;;;5058110;28;20469;-64
2023/06/21 06:14:48;;;;;;;32.00;22.08;;;19.20;99.90;;;;;;5075238;28;20204;-64
2023/06/21 06:17:15;;;;;;;30.80;20.90;;;19.30;99.90;;;;;;5075300;28;20044;-64
2023/06/21 06:19:41;;;;;;;29.45;19.73;;;19.30;99.90;;;;;;5074818;28;20139;-64
2023/06/21 06:22:06;;;;;;;31.33;20.02;;;19.30;99.90;;;;;;5057396;28;20080;-65
2023/06/21 06:24:32;;;;;;;28.20;19.60;;;19.30;99.90;;;;;;5074582;28;20052;-65
2023/06/21 06:26:58;;;;;;;27.95;20.80;;;19.40;99.90;;;;;;5074655;28;20075;-64
2023/06/21 06:29:24;;;;;;;25.80;18.48;;;19.40;99.90;;;;;;5057810;28;20041;-64
2023/06/21 06:31:51;;;;;;;28.95;19.27;;;19.40;99.90;;;;;;5074513;28;20492;-64
2023/06/21 06:34:17;;;;;;;26.35;18.88;;;19.50;99.90;;;;;;5074367;28;20045;-65
2023/06/21 06:36:43;;;;;;;25.98;19.20;;;19.50;99.90;;;;;;5075167;28;20070;-64
2023/06/21 06:39:09;;;;;;;22.70;17.08;;;19.70;99.90;;;;;;5074231;28;20054;-64
2023/06/21 06:41:35;;;;;;;22.52;16.67;;;19.70;99.90;;;;;;5074369;28;20487;-64
2023/06/21 06:44:00;;;;;;;22.85;16.45;;;19.70;99.90;;;;;;5074181;28;20086;-64
2023/06/21 06:46:26;;;;;;;23.27;17.00;;;19.70;99.90;;;;;;5074126;28;20063;-65
2023/06/21 06:48:52;;;;;;;23.65;16.80;;;19.80;99.90;;;;;;5074382;28;20472;-64
2023/06/21 06:51:17;;;;;;;22.42;16.00;;;19.90;99.90;;;;;;5074859;28;20131;-64
2023/06/21 06:53:43;;;;;;;22.17;15.88;;;19.90;99.90;;;;;;5074088;28;20131;-65
2023/06/21 06:56:09;;;;;;;22.67;16.63;;;19.80;99.90;;;;;;5073598;28;20045;-64
2023/06/21 06:58:35;;;;;;;20.48;15.52;;;19.80;99.90;;;;;;5073974;28;20049;-64
2023/06/21 07:01:05;;;;;;;23.08;16.70;;;19.80;99.90;;;;;;5073903;28;20044;-65
2023/06/21 07:03:32;;;;;;;20.63;16.55;;;19.90;99.90;;;;;;5056746;28;20170;-65
2023/06/21 07:05:58;;;;;;;21.00;15.70;;;20.00;99.90;;;;;;5074623;28;20048;-65
2023/06/21 07:08:24;;;;;;;22.20;16.05;;;20.10;99.90;;;;;;5073786;28;20492;-65
2023/06/21 07:10:50;;;;;;;22.98;15.38;;;20.10;99.90;;;;;;5073782;28;20048;-65
2023/06/21 07:13:17;;;;;;;23.20;16.98;;;20.10;99.90;;;;;;5056860;28;20044;-65
2023/06/21 07:15:43;;;;;;;22.02;15.77;;;20.10;99.90;;;;;;5073935;28;20052;-64
2023/06/21 07:18:11;;;;;;;19.23;14.98;;;20.10;99.90;;;;;;5073283;28;20504;-64
2023/06/21 07:20:37;;;;;;;20.08;14.77;;;20.30;99.90;;;;;;5055767;28;20405;-64
2023/06/21 07:23:03;;;;;;;19.95;15.45;;;20.40;99.90;;;;;;5073585;28;20032;-65
2023/06/21 07:25:28;;;;;;;20.83;15.25;;;20.50;99.90;;;;;;5073562;28;20052;-64
2023/06/21 07:27:54;;;;;;;20.30;13.95;;;20.50;99.90;;;;;;5073598;28;20044;-64
2023/06/21 07:30:22;;;;;;;17.73;13.65;;;20.60;99.90;;;;;;5055780;28;20584;-65
2023/06/21 07:32:48;;;;;;;19.73;15.27;;;20.60;99.90;;;;;;5073493;28;20051;-64
2023/06/21 07:35:15;;;;;;;19.73;14.90;;;20.70;99.90;;;;;;5073459;28;20048;-65
2023/06/21 07:37:44;;;;;;;20.30;14.90;;;20.80;99.90;;;;;;5074605;28;20338;-63
2023/06/21 07:40:11;;;;;;;18.52;13.98;;;20.80;99.90;;;;;;5073387;28;20044;-64
2023/06/21 07:42:37;;;;;;;18.67;14.80;;;20.80;99.90;;;;;;5073357;28;20124;-64
2023/06/21 07:45:06;;;;;;;17.48;13.52;;;21.00;99.90;;;;;;5073680;28;20048;-64
2023/06/21 07:47:32;;;;;;;15.55;12.85;;;21.00;99.90;;;;;;5073677;28;20048;-64
2023/06/21 07:49:58;;;;;;;16.77;12.30;;;21.00;99.90;;;;;;5077655;28;20040;-64
2023/06/21 07:52:24;;;;;;;16.48;11.77;;;21.10;99.90;;;;;;5080771;28;20076;-64
2023/06/21 07:54:50;;;;;;;15.32;12.63;;;21.20;99.90;;;;;;5079738;28;20110;-65
2023/06/21 07:57:16;;;;;;;15.13;11.45;;;21.20;99.90;;;;;;5079960;28;20080;-65
2023/06/21 07:59:43;;;;;;;16.27;12.73;;;21.30;99.90;;;;;;5079571;28;20528;-64
2023/06/21 08:02:17;;;;;;;16.42;12.07;;;21.40;99.90;;;;;;5079848;28;20052;-64
2023/06/21 08:04:44;;;;;;;15.48;11.82;;;21.40;99.90;;;;;;5062634;28;20489;-64
2023/06/21 08:07:10;;;;;;;15.32;11.60;;;21.40;99.90;;;;;;5079896;28;20063;-64
2023/06/21 08:09:35;;;;;;;14.95;11.55;;;21.30;99.90;;;;;;5079735;28;20048;-64
2023/06/21 08:12:01;;;;;;;15.75;12.20;;;21.50;99.90;;;;;;5079666;28;20048;-65
2023/06/21 08:14:27;;;;;;;14.77;11.55;;;21.60;99.90;;;;;;5079759;28;20044;-65
2023/06/21 08:16:53;;;;;;;13.48;11.57;;;21.60;99.90;;;;;;5079749;28;20052;-64
2023/06/21 08:19:19;;;;;;;13.35;10.50;;;21.60;99.90;;;;;;5079701;28;20045;-64
2023/06/21 08:21:45;;;;;;;13.98;10.70;;;21.70;99.90;;;;;;5080349;28;20049;-64
2023/06/21 08:24:10;;;;;;;14.15;10.60;;;21.80;99.90;;;;;;5079717;28;20044;-64
2023/06/21 08:26:36;;;;;;;14.77;10.88;;;21.90;99.90;;;;;;5079679;28;20055;-65
2023/06/21 08:29:02;;;;;;;12.40;10.27;;;22.10;99.90;;;;;;5079676;28;20044;-64
2023/06/21 08:31:28;;;;;;;12.90;9.80;;;22.10;99.90;;;;;;5079660;28;20451;-65
2023/06/21 08:33:53;;;;;;;11.27;8.98;;;22.10;99.90;;;;;;5079641;28;20048;-64
2023/06/21 08:36:19;;;;;;;10.63;8.07;;;22.10;99.90;;;;;;5080167;28;20087;-64
2023/06/21 08:38:45;;;;;;;9.13;7.45;;;22.30;99.90;;;;;;5079580;28;20500;-63
2023/06/21 08:41:11;;;;;;;10.80;8.98;;;22.30;99.90;;;;;;5080288;28;20119;-64
2023/06/21 08:43:37;;;;;;;10.90;8.20;;;22.40;99.90;;;;;;5079510;28;20534;-64
2023/06/21 08:46:06;;;;;;;10.20;7.97;;;22.60;99.90;;;;;;5079892;28;20052;-65
2023/06/21 08:48:36;;;;;;;10.50;9.38;;;22.70;99.90;;;;;;5080045;28;20045;-64
2023/06/21 08:51:04;;;;;;;9.68;8.00;;;22.70;99.90;;;;;;5079447;28;20084;-64
2023/06/21 08:53:46;;;;;;;11.05;8.80;;;22.70;99.90;;;;;;5079628;28;20365;-65
2023/06/21 08:56:17;;;;;;;11.55;8.82;;;22.50;99.90;;;;;;5062315;28;20393;-65
2023/06/21 08:58:49;;;;;;;8.80;6.80;;;22.50;99.90;;;;;;5079691;28;20049;-65
2023/06/21 09:01:18;;;;;;;9.88;6.75;;;22.60;99.90;;;;;;5076840;28;20044;-65
2023/06/21 09:03:54;;;;;;;8.98;5.88;;;22.90;99.90;;;;;;5076140;28;20040;-65
2023/06/21 09:06:22;;;;;;;;;;;23.10;99.90;;;;;;5076619;28;20047;-65
2023/06/21 09:08:49;;;;;;;9.52;7.75;;;23.30;99.90;;;;;;5075885;28;19921;-65
2023/06/21 09:11:17;;;;;;;9.38;7.95;;;23.40;99.90;;;;;;5058304;28;20048;-65
2023/06/21 09:13:45;;;;;;;9.77;7.40;;;23.50;99.90;;;;;;5076416;28;20119;-64
2023/06/21 09:16:12;;;;;;;8.02;7.05;;;23.60;99.90;;;;;;5075695;28;20056;-64
2023/06/21 09:18:39;;;;;;;7.25;6.55;;;23.60;99.90;;;;;;5075773;28;20537;-64
2023/06/21 09:21:08;;;;;;;8.00;6.93;;;23.50;99.90;;;;;;5076558;28;20194;-63
2023/06/21 09:23:35;;;;;;;7.68;6.03;;;23.50;99.90;;;;;;5075750;28;20044;-64
2023/06/21 09:26:03;;;;;;;7.00;5.85;;;23.50;99.90;;;;;;5058175;28;20052;-64
2023/06/21 09:28:29;;;;;;;7.60;6.43;;;23.60;99.90;;;;;;5075778;28;20060;-64
2023/06/21 09:30:55;;;;;;;7.55;6.20;;;23.60;99.90;;;;;;5075690;28;20048;-63
2023/06/21 09:33:23;;;;;;;7.97;6.15;;;23.60;99.90;;;;;;5075894;28;20466;-64
2023/06/21 09:35:49;;;;;;;8.02;6.15;;;23.60;99.90;;;;;;5075465;28;20044;-64
2023/06/21 09:38:21;;;;;;;8.25;6.63;;;23.50;99.90;;;;;;5075552;28;20067;-64
2023/06/21 09:40:46;;;;;;;6.55;5.65;;;23.40;99.90;;;;;;5075779;28;20047;-64
2023/06/21 09:43:12;;;;;;;9.98;6.05;;;23.10;99.90;;;;;;5075263;28;20036;-64
2023/06/21 09:45:38;;;;;;;8.93;6.45;;;22.90;99.90;;;;;;5057264;28;20559;-64
2023/06/21 09:48:03;;;;;;;7.85;5.85;;;22.90;99.90;;;;;;5075968;28;20053;-64
2023/06/21 09:50:36;;;;;;;7.00;5.38;;;23.00;99.90;;;;;;5075743;28;20045;-64
2023/06/21 09:53:02;;;;;;;5.63;4.35;;;23.40;99.90;;;;;;5075265;28;20048;-65
2023/06/21 09:55:29;;;;;;;5.55;4.32;;;23.60;99.90;;;;;;5075502;28;20071;-64
2023/06/21 09:57:54;;;;;;;6.28;4.95;;;23.50;99.90;;;;;;5075740;28;20041;-66
2023/06/21 10:00:20;;;;;;;6.35;4.18;;;23.50;99.90;;;;;;5075094;28;20041;-64
2023/06/21 10:02:46;;;;;;;6.00;4.07;;;23.80;99.90;;;;;;5074919;28;20515;-64
2023/06/21 10:05:19;;;;;;;6.28;4.55;;;24.10;99.90;;;;;;5075159;28;20040;-65
2023/06/21 10:07:46;;;;;;;6.32;4.60;;;24.20;99.90;;;;;;5074991;28;20084;-65
2023/06/21 10:10:12;;;;;;;4.93;3.17;;;24.10;99.90;;;;;;5075468;28;20052;-65
2023/06/21 10:12:52;;;;;;;6.07;4.20;;;24.10;99.90;;;;;;5074576;28;20056;-64
2023/06/21 10:15:18;;;;;;;6.78;5.07;;;24.30;99.90;;;;;;5074987;28;20040;-65
2023/06/21 10:17:46;;;;;;;6.47;5.28;;;24.50;99.90;;;;;;5074795;28;20051;-65
2023/06/21 10:20:14;;;;;;;5.43;3.90;;;24.30;99.90;;;;;;5074985;28;20358;-64
2023/06/21 10:22:45;;;;;;;4.43;3.15;;;24.40;99.90;;;;;;5074666;28;20141;-65
2023/06/21 10:25:13;;;;;;;5.53;3.72;;;24.30;99.90;;;;;;5074401;28;20489;-65
2023/06/21 10:27:42;;;;;;;5.75;3.53;;;24.30;99.90;;;;;;5056754;28;20049;-65
2023/06/21 10:30:09;;;;;;;4.03;2.83;;;24.60;99.90;;;;;;5074481;28;20121;-65
2023/06/21 10:32:38;;;;;;;4.90;3.55;;;24.70;99.90;;;;;;5075054;28;20051;-64
2023/06/21 10:35:13;;;;;;;4.85;3.72;;;24.50;99.90;;;;;;5074427;28;20091;-65
2023/06/21 10:37:52;;;;;;;4.47;3.58;;;24.20;99.90;;;;;;5074954;28;20054;-64
2023/06/21 10:40:19;;;;;;;4.43;2.83;;;24.00;99.90;;;;;;5057544;28;20522;-64
2023/06/21 10:42:45;;;;;;;2.97;1.85;;;24.10;99.90;;;;;;5074181;28;20059;-64
2023/06/21 10:45:12;;;;;;;3.80;2.60;;;24.30;99.90;;;;;;5074153;28;20047;-65
2023/06/21 10:47:39;;;;;;;3.40;2.28;;;24.50;99.90;;;;;;5074628;28;20067;-65
2023/06/21 10:50:06;;;;;;;4.57;3.00;;;24.70;99.90;;;;;;5074160;28;20045;-63
2023/06/21 10:52:33;;;;;;;4.25;3.08;;;24.70;99.90;;;;;;5074051;28;20052;-63
2023/06/21 10:55:01;;;;;;;4.30;3.08;;;24.70;99.90;;;;;;5073785;28;20505;-64
2023/06/21 10:57:33;;;;;;;4.00;3.00;;;24.80;99.90;;;;;;5074029;28;20048;-63
2023/06/21 11:00:02;;;;;;;4.60;3.17;;;25.10;99.90;;;;;;5073951;28;20099;-64
2023/06/21 11:02:29;;;;;;;4.43;3.15;;;25.40;99.90;;;;;;5073870;28;20040;-64
2023/06/21 11:05:14;;;;;;;4.82;3.70;;;25.60;99.90;;;;;;5073888;28;20060;-64
2023/06/21 11:07:46;;;;;;;4.35;3.00;;;25.80;99.90;;;;;;5056411;28;20130;-65
2023/06/21 11:10:12;;;;;;;3.97;2.58;;;25.70;99.90;;;;;;5056991;28;20105;-64
2023/06/21 11:12:38;;;;;;;3.40;2.40;;;25.60;99.90;;;;;;5039539;28;20057;-65
2023/06/21 11:15:05;;;;;;;3.58;2.72;;;25.90;99.90;;;;;;5073761;28;20367;-65
2023/06/21 11:17:34;;;;;;;3.42;2.60;;;26.20;99.90;;;;;;5056319;28;20488;-64
2023/06/21 11:20:22;;;;;;;4.30;2.95;;;26.00;99.90;;;;;;5073735;28;20044;-64
2023/06/21 11:22:59;;;;;;;4.07;2.63;;;25.80;99.90;;;;;;5074143;28;20119;-64
2023/06/21 11:25:25;;;;;;;6.15;2.92;;;25.90;99.90;;;;;;5073045;28;20115;-64
2023/06/21 11:28:19;;;;;;;4.15;3.35;;;26.00;99.90;;;;;;5073587;28;20124;-64
2023/06/21 11:31:03;;;;;;;3.58;2.90;;;25.80;99.90;;;;;;5073591;28;20131;-63
2023/06/21 11:33:30;;;;;;;3.92;2.80;;;25.50;99.90;;;;;;5074090;28;20052;-63
2023/06/21 11:36:06;;;;;;;4.38;2.80;;;25.30;99.90;;;;;;5073644;28;20047;-64
2023/06/21 11:38:34;;;;;;;3.80;2.67;;;25.10;99.90;;;;;;5073544;28;20123;-65
2023/06/21 11:41:01;;;;;;;4.38;2.58;;;25.10;99.90;;;;;;5073468;28;20084;-65
2023/06/21 11:43:27;;;;;;;4.00;2.75;;;25.50;99.90;;;;;;5073357;28;20036;-65
2023/06/21 11:46:00;;;;;;;3.42;2.22;;;25.70;99.90;;;;;;5073489;28;20127;-64
2023/06/21 11:48:26;;;;;;;4.45;2.50;;;25.70;99.90;;;;;;5073441;28;20098;-64
2023/06/21 11:50:52;;;;;;;3.88;2.55;;;25.90;99.90;;;;;;5073062;28;20500;-64
2023/06/21 11:53:30;;;;;;;3.20;2.40;;;26.30;99.90;;;;;;5055434;28;20044;-65
2023/06/21 11:55:58;;;;;;;3.63;2.42;;;26.60;99.90;;;;;;5074020;28;20055;-64
2023/06/21 11:58:25;;;;;;;3.50;2.85;;;26.60;99.90;;;;;;5073093;28;20041;-64
2023/06/21 12:00:52;;;;;;;4.53;2.40;;;26.60;99.90;;;;;;5072983;28;20045;-64
2023/06/21 12:03:21;;;;;;;4.20;3.00;;;26.60;99.90;;;;;;5073226;28;20120;-63
2023/06/21 12:05:58;;;;;;;3.50;2.90;;;26.80;99.90;;;;;;5073273;28;20183;-64
2023/06/21 12:08:29;;;;;;;3.22;2.20;;;27.10;99.90;;;;;;5073111;28;20044;-64
2023/06/21 12:11:00;;;;;;;3.35;2.13;;;27.50;99.90;;;;;;5073189;28;20049;-64
2023/06/21 12:13:29;;;;;;;4.00;2.90;;;27.70;99.90;;;;;;5073153;28;20033;-64
2023/06/21 12:15:57;;;;;;;3.92;2.38;;;27.70;99.90;;;;;;5073523;28;20091;-65
2023/06/21 12:18:26;;;;;;;3.47;2.20;;;27.50;99.90;;;;;;5054998;28;20430;-64
2023/06/21 12:20:54;;;;;;;3.85;2.90;;;27.20;99.90;;;;;;5073202;28;20078;-64
2023/06/21 12:23:21;;;;;;;3.03;2.17;;;26.80;99.90;;;;;;5072971;28;20045;-64
2023/06/21 12:25:52;;;;;;;3.10;2.05;;;26.70;99.90;;;;;;5073317;28;20045;-64
2023/06/21 12:28:20;;;;;;;3.67;2.78;;;26.90;99.90;;;;;;5072821;28;20055;-63
2023/06/21 12:31:03;;;;;;;4.60;3.38;;;26.90;99.90;;;;;;5054960;28;20056;-64
2023/06/21 12:33:37;;;;;;;4.10;2.90;;;27.10;99.90;;;;;;5073379;28;20044;-64
2023/06/21 12:36:20;;;;;;;3.30;2.83;;;27.30;99.90;;;;;;5075231;28;20044;-64